Time;durP1;ratioP1;P1;durP2;ratioP2;P2;SDS_P1;SDS_P2;PMS_P1;PMS_P2;Temp;Humidity;BMP_temperature;BMP_pressure;BME280_temperature;BME280_humidity;BME280_pressure;Samples;Min_cycle;Max_cycle;Signal;HPM_P1;HPM_P2
2023/07/15 00:01:34;;;;;;;12.40;12.10;;;22.00;85.00;;;;;;5050455;28;20467;-66
2023/07/15 00:04:01;;;;;;;12.40;12.10;;;22.00;85.00;;;;;;5047292;28;20494;-65
2023/07/15 00:06:29;;;;;;;12.60;12.30;;;22.00;85.70;;;;;;5056012;28;20470;-68
2023/07/15 00:08:56;;;;;;;12.20;11.90;;;21.90;85.90;;;;;;5046870;28;20490;-66
2023/07/15 00:11:27;;;;;;;11.90;11.60;;;21.90;86.20;;;;;;5051314;28;20460;-66
2023/07/15 00:13:56;;;;;;;11.97;11.67;;;21.80;86.50;;;;;;5036230;28;20472;-66
2023/07/15 00:16:23;;;;;;;12.40;12.10;;;21.80;87.10;;;;;;5049321;28;20480;-65
2023/07/15 00:18:50;;;;;;;12.30;12.00;;;21.80;87.10;;;;;;5049172;28;20470;-66
2023/07/15 00:21:20;;;;;;;12.40;12.10;;;21.80;87.20;;;;;;5049020;28;20464;-65
2023/07/15 00:23:52;;;;;;;12.67;12.37;;;21.70;87.40;;;;;;5045033;28;20550;-65
2023/07/15 00:26:19;;;;;;;12.53;12.23;;;21.80;87.80;;;;;;5059141;28;20477;-66
2023/07/15 00:28:46;;;;;;;12.27;11.97;;;21.70;87.60;;;;;;5048322;28;20498;-65
2023/07/15 00:31:17;;;;;;;12.50;12.20;;;21.70;88.10;;;;;;5051011;28;20563;-66
2023/07/15 00:33:44;;;;;;;12.60;12.30;;;21.60;88.60;;;;;;5045582;28;21027;-66
2023/07/15 00:36:13;;;;;;;12.20;11.90;;;21.70;88.50;;;;;;5053308;28;20974;-65
2023/07/15 00:38:41;;;;;;;12.37;12.07;;;21.60;88.30;;;;;;5045202;28;20543;-66
2023/07/15 00:41:16;;;;;;;12.10;11.80;;;21.70;88.70;;;;;;5054437;28;20467;-65
2023/07/15 00:43:58;;;;;;;12.10;11.80;;;21.60;89.20;;;;;;5044789;28;20554;-65
2023/07/15 00:46:43;;;;;;;12.00;11.70;;;21.60;89.60;;;;;;5048444;28;20558;-65
2023/07/15 00:49:13;;;;;;;12.13;11.83;;;21.60;89.80;;;;;;5048569;28;20499;-66
2023/07/15 00:51:42;;;;;;;12.30;12.00;;;21.50;90.00;;;;;;5050281;28;20464;-66
2023/07/15 00:54:12;;;;;;;12.33;12.03;;;21.50;90.10;;;;;;5055683;28;20463;-66
2023/07/15 00:56:40;;;;;;;12.40;12.10;;;21.50;90.40;;;;;;5054630;28;20479;-66
2023/07/15 00:59:09;;;;;;;12.17;11.87;;;21.40;90.50;;;;;;5047390;28;20534;-66
2023/07/15 01:01:37;;;;;;;11.97;11.67;;;21.40;90.50;;;;;;5048661;28;20471;-65
2023/07/15 01:04:05;;;;;;;12.13;11.83;;;21.30;90.70;;;;;;5058320;28;20462;-66
2023/07/15 01:06:35;;;;;;;12.30;12.00;;;21.30;90.90;;;;;;5061885;28;20990;-67
2023/07/15 01:09:07;;;;;;;12.37;12.07;;;21.20;91.00;;;;;;5048563;28;20507;-66
2023/07/15 01:11:34;;;;;;;12.00;11.70;;;21.20;91.20;;;;;;5046210;28;20464;-66
2023/07/15 01:14:01;;;;;;;12.03;11.73;;;21.10;91.30;;;;;;5048217;28;20464;-66
2023/07/15 01:16:29;;;;;;;12.10;11.80;;;21.10;91.50;;;;;;5068437;28;20520;-67
2023/07/15 01:18:57;;;;;;;12.40;12.10;;;21.10;91.60;;;;;;5074491;28;20491;-66
2023/07/15 01:21:26;;;;;;;12.33;12.03;;;21.10;91.70;;;;;;5071934;28;20451;-66
2023/07/15 01:23:55;;;;;;;12.43;12.13;;;21.10;91.80;;;;;;5068136;28;20455;-66
2023/07/15 01:26:21;;;;;;;11.90;11.60;;;21.20;91.70;;;;;;5066569;28;20911;-67
2023/07/15 01:28:49;;;;;;;12.50;12.20;;;21.20;91.70;;;;;;5068941;28;20493;-67
2023/07/15 01:31:18;;;;;;;12.13;11.83;;;21.30;91.60;;;;;;5067496;28;20463;-66
2023/07/15 01:33:45;;;;;;;11.80;11.50;;;21.30;91.70;;;;;;5070854;28;20540;-66
2023/07/15 01:36:13;;;;;;;12.20;11.90;;;21.40;91.60;;;;;;5068030;28;20459;-66
2023/07/15 01:38:40;;;;;;;11.70;11.40;;;21.40;91.50;;;;;;5067501;28;20467;-66
2023/07/15 01:41:09;;;;;;;12.10;11.80;;;21.40;91.70;;;;;;5066832;28;20472;-66
2023/07/15 01:43:36;;;;;;;12.00;11.70;;;21.40;91.60;;;;;;5071216;28;20455;-66
2023/07/15 01:46:03;;;;;;;12.00;11.70;;;21.40;91.70;;;;;;5067734;28;20455;-67
2023/07/15 01:48:30;;;;;;;12.17;11.87;;;21.40;91.70;;;;;;5065317;28;20488;-66
2023/07/15 01:50:57;;;;;;;11.80;11.50;;;21.30;91.70;;;;;;5068458;28;20480;-66
2023/07/15 01:53:24;;;;;;;12.47;12.17;;;21.30;91.90;;;;;;5069288;28;20463;-66
2023/07/15 01:55:51;;;;;;;12.20;11.90;;;21.30;91.90;;;;;;5067232;28;21068;-66
2023/07/15 01:58:20;;;;;;;12.07;11.77;;;21.30;92.00;;;;;;5068230;28;20824;-66
2023/07/15 02:00:48;;;;;;;12.20;11.90;;;21.20;92.10;;;;;;5066130;28;20464;-66
2023/07/15 02:03:15;;;;;;;12.40;12.10;;;21.20;92.20;;;;;;5066634;28;20455;-66
2023/07/15 02:05:42;;;;;;;12.30;12.00;;;21.20;92.20;;;;;;5067441;28;20882;-67
2023/07/15 02:08:08;;;;;;;11.90;11.60;;;21.40;92.10;;;;;;5067584;28;20724;-65
2023/07/15 02:10:35;;;;;;;12.30;12.00;;;21.40;92.00;;;;;;5072238;28;20521;-67
2023/07/15 02:13:02;;;;;;;12.00;11.70;;;21.40;91.90;;;;;;5067609;28;20479;-66
2023/07/15 02:15:30;;;;;;;12.23;11.93;;;21.40;91.90;;;;;;5068839;28;21024;-67
2023/07/15 02:17:58;;;;;;;12.30;12.00;;;21.40;91.90;;;;;;5040296;28;20481;-66
2023/07/15 02:20:25;;;;;;;11.60;11.30;;;21.50;91.80;;;;;;5042740;28;20456;-66
2023/07/15 02:22:53;;;;;;;12.43;12.13;;;21.50;91.80;;;;;;5041685;28;20490;-65
2023/07/15 02:25:20;;;;;;;12.00;11.70;;;21.50;91.80;;;;;;5049611;28;20562;-67
2023/07/15 02:27:49;;;;;;;11.80;11.50;;;21.50;91.80;;;;;;5047538;28;20487;-67
2023/07/15 02:30:15;;;;;;;11.90;11.60;;;21.40;91.80;;;;;;5044005;28;21019;-66
2023/07/15 02:32:45;;;;;;;12.03;11.73;;;21.40;91.80;;;;;;5048016;28;20475;-67
2023/07/15 02:35:13;;;;;;;12.00;11.70;;;21.40;91.90;;;;;;5050881;28;20456;-66
2023/07/15 02:37:43;;;;;;;11.83;11.53;;;21.30;91.90;;;;;;5047621;28;20452;-66
2023/07/15 02:40:11;;;;;;;12.07;11.77;;;21.30;91.90;;;;;;5050754;28;20538;-66
2023/07/15 02:42:38;;;;;;;12.53;12.23;;;21.30;92.10;;;;;;5042107;28;20471;-67
2023/07/15 02:45:06;;;;;;;12.30;12.00;;;21.30;92.10;;;;;;5052147;28;20468;-67
2023/07/15 02:47:34;;;;;;;11.90;11.60;;;21.30;92.20;;;;;;5049833;28;20464;-66
2023/07/15 02:50:04;;;;;;;12.17;11.87;;;21.30;92.30;;;;;;5046239;28;21017;-66
2023/07/15 02:52:32;;;;;;;12.50;12.20;;;21.20;92.30;;;;;;5043009;28;20452;-66
2023/07/15 02:54:59;;;;;;;12.33;12.03;;;21.20;92.40;;;;;;5047987;28;20483;-67
2023/07/15 02:57:26;;;;;;;12.30;12.00;;;21.10;92.70;;;;;;5050242;28;20460;-66
2023/07/15 02:59:54;;;;;;;11.87;11.57;;;21.10;92.90;;;;;;5043488;28;21040;-67
2023/07/15 03:02:22;;;;;;;12.17;11.87;;;21.00;92.90;;;;;;5053345;28;20475;-65
2023/07/15 03:04:49;;;;;;;11.97;11.67;;;21.00;92.90;;;;;;5050194;28;20948;-66
2023/07/15 03:07:19;;;;;;;12.43;12.13;;;21.00;93.10;;;;;;5039659;28;20465;-67
2023/07/15 03:09:46;;;;;;;11.80;11.50;;;21.00;93.20;;;;;;5056762;28;20493;-67
2023/07/15 03:12:17;;;;;;;12.00;11.70;;;20.90;93.30;;;;;;5048455;28;20853;-66
2023/07/15 03:14:44;;;;;;;12.40;12.10;;;20.80;93.40;;;;;;5040996;28;20459;-66
2023/07/15 03:17:11;;;;;;;11.93;11.63;;;20.80;93.60;;;;;;5070762;28;20937;-67
2023/07/15 03:19:39;;;;;;;11.83;11.53;;;20.70;93.80;;;;;;5064460;28;20553;-67
2023/07/15 03:22:06;;;;;;;12.17;11.87;;;20.70;93.90;;;;;;5064271;28;20542;-67
2023/07/15 03:24:35;;;;;;;12.07;11.77;;;20.60;94.30;;;;;;5069814;28;20459;-67
2023/07/15 03:27:02;;;;;;;11.80;11.50;;;20.60;94.40;;;;;;5074804;28;20485;-67
2023/07/15 03:29:29;;;;;;;12.20;11.90;;;20.60;94.60;;;;;;5061423;28;20491;-66
2023/07/15 03:31:57;;;;;;;12.00;11.70;;;20.50;94.80;;;;;;5068734;28;20462;-67
2023/07/15 03:34:24;;;;;;;12.00;11.70;;;20.50;95.00;;;;;;5069256;28;20490;-66
2023/07/15 03:36:51;;;;;;;12.10;11.80;;;20.40;95.20;;;;;;5065839;28;20988;-66
2023/07/15 03:39:19;;;;;;;12.50;12.20;;;20.40;95.40;;;;;;5069659;28;20497;-66
2023/07/15 03:41:48;;;;;;;12.30;12.00;;;20.50;95.50;;;;;;5070635;28;20941;-66
2023/07/15 03:44:14;;;;;;;12.20;11.90;;;20.40;95.60;;;;;;5068108;28;20466;-65
2023/07/15 03:46:42;;;;;;;12.47;12.17;;;20.50;95.80;;;;;;5069474;28;20480;-67
2023/07/15 03:49:09;;;;;;;12.20;11.90;;;20.60;95.90;;;;;;5072484;28;20828;-66
2023/07/15 03:51:36;;;;;;;12.10;11.80;;;20.60;96.10;;;;;;5068142;28;20532;-66
2023/07/15 03:54:05;;;;;;;12.50;12.20;;;20.60;96.30;;;;;;5067164;28;20916;-66
2023/07/15 03:56:32;;;;;;;12.17;11.87;;;20.60;96.40;;;;;;5067534;28;20997;-66
2023/07/15 03:59:04;;;;;;;12.30;12.00;;;20.60;96.60;;;;;;5066016;28;20497;-66
2023/07/15 04:01:31;;;;;;;11.80;11.50;;;20.50;96.90;;;;;;5068266;28;20518;-66
2023/07/15 04:03:57;;;;;;;11.73;11.43;;;20.50;97.00;;;;;;5065302;28;20460;-66
2023/07/15 04:06:26;;;;;;;11.80;11.50;;;20.50;97.20;;;;;;5068632;28;20466;-66
2023/07/15 04:08:53;;;;;;;11.63;11.33;;;20.50;97.30;;;;;;5074016;28;20943;-66
2023/07/15 04:11:20;;;;;;;11.60;11.30;;;20.50;97.50;;;;;;5058654;28;20784;-67
2023/07/15 04:13:47;;;;;;;11.90;11.60;;;20.50;97.70;;;;;;5068736;28;20495;-67
2023/07/15 04:16:15;;;;;;;12.00;11.70;;;20.50;97.90;;;;;;5067542;28;20490;-66
2023/07/15 04:18:43;;;;;;;12.57;12.27;;;20.60;98.00;;;;;;5050999;28;20858;-66
2023/07/15 04:21:10;;;;;;;11.90;11.60;;;20.60;98.10;;;;;;5053889;28;20999;-66
2023/07/15 04:23:37;;;;;;;12.20;11.90;;;20.60;98.30;;;;;;5049939;28;20495;-67
2023/07/15 04:26:06;;;;;;;12.50;12.20;;;20.60;98.60;;;;;;5052695;28;20898;-67
2023/07/15 04:28:34;;;;;;;12.30;12.00;;;20.60;98.60;;;;;;5049534;28;20468;-67
2023/07/15 04:31:02;;;;;;;12.40;12.10;;;20.60;98.80;;;;;;5049359;28;20546;-66
2023/07/15 04:33:31;;;;;;;12.20;11.90;;;20.70;98.70;;;;;;5053795;28;20532;-66
2023/07/15 04:35:58;;;;;;;12.30;12.00;;;20.80;98.90;;;;;;5049728;28;20836;-66
2023/07/15 04:38:25;;;;;;;12.30;12.00;;;20.80;99.10;;;;;;5049356;28;20521;-67
2023/07/15 04:40:51;;;;;;;13.30;12.90;;;20.90;99.00;;;;;;5043923;28;20466;-66
2023/07/15 04:43:21;;;;;;;13.20;12.80;;;21.00;99.10;;;;;;5053861;28;20994;-67
2023/07/15 04:45:48;;;;;;;12.77;12.47;;;21.10;99.10;;;;;;5048687;28;20464;-66
2023/07/15 04:48:15;;;;;;;13.00;12.60;;;21.20;99.30;;;;;;5044885;28;20459;-67
2023/07/15 04:50:44;;;;;;;12.67;12.37;;;21.20;99.40;;;;;;5056196;28;20482;-66
2023/07/15 04:53:12;;;;;;;12.60;12.30;;;21.20;99.60;;;;;;5047997;28;20925;-67
2023/07/15 04:55:40;;;;;;;12.60;12.30;;;21.30;99.70;;;;;;5049916;28;20476;-66
2023/07/15 04:58:07;;;;;;;12.67;12.37;;;21.30;99.90;;;;;;5041642;28;20666;-67
2023/07/15 05:00:35;;;;;;;12.80;12.50;;;21.40;99.80;;;;;;5054210;28;20966;-67
2023/07/15 05:03:02;;;;;;;13.10;12.70;;;21.50;99.90;;;;;;5051236;28;20459;-65
2023/07/15 05:05:29;;;;;;;13.00;12.60;;;21.50;99.90;;;;;;5052036;28;20568;-66
2023/07/15 05:08:03;;;;;;;13.00;12.60;;;21.60;99.90;;;;;;5047717;28;20866;-67
2023/07/15 05:10:31;;;;;;;12.50;12.20;;;21.60;99.90;;;;;;5054178;28;20491;-67
2023/07/15 05:12:59;;;;;;;12.70;12.40;;;21.70;99.90;;;;;;5048719;28;20467;-67
2023/07/15 05:15:26;;;;;;;12.70;12.40;;;21.80;99.90;;;;;;5051008;28;20495;-67
2023/07/15 05:17:53;;;;;;;13.20;12.80;;;21.90;99.90;;;;;;5048193;28;20471;-67
2023/07/15 05:20:21;;;;;;;12.60;12.30;;;22.00;99.90;;;;;;5043899;28;20461;-67
2023/07/15 05:22:48;;;;;;;12.87;12.50;;;22.10;99.90;;;;;;5048055;28;20474;-66
2023/07/15 05:25:16;;;;;;;13.03;12.63;;;22.10;99.90;;;;;;5042543;28;20801;-67
2023/07/15 05:27:43;;;;;;;12.93;12.53;;;22.20;99.90;;;;;;5058762;28;20455;-67
2023/07/15 05:30:12;;;;;;;12.60;12.30;;;22.30;99.90;;;;;;5045578;28;20883;-67
2023/07/15 05:32:40;;;;;;;12.37;12.07;;;22.40;99.90;;;;;;5036543;28;21384;-67
2023/07/15 05:35:08;;;;;;;13.00;12.60;;;22.40;99.90;;;;;;5054443;28;20464;-66
2023/07/15 05:37:37;;;;;;;12.40;12.10;;;22.50;99.90;;;;;;5051152;28;20548;-67
2023/07/15 05:40:09;;;;;;;12.87;12.50;;;22.60;99.90;;;;;;5057382;28;20462;-66
2023/07/15 05:42:38;;;;;;;12.53;12.23;;;22.70;99.90;;;;;;5047489;28;20452;-67
2023/07/15 05:45:06;;;;;;;12.60;12.30;;;22.80;99.90;;;;;;5050738;28;20988;-66
2023/07/15 05:47:34;;;;;;;13.20;12.80;;;22.90;99.90;;;;;;5046226;28;20464;-66
2023/07/15 05:50:01;;;;;;;12.70;12.40;;;23.00;99.90;;;;;;5056962;28;20478;-67
2023/07/15 05:52:28;;;;;;;12.80;12.40;;;23.10;99.90;;;;;;5046357;28;21039;-67
2023/07/15 05:54:55;;;;;;;12.60;12.30;;;23.20;99.90;;;;;;5049956;28;20522;-67
2023/07/15 05:57:22;;;;;;;12.50;12.20;;;23.40;99.90;;;;;;5047581;28;20456;-66
2023/07/15 05:59:51;;;;;;;13.00;12.60;;;23.50;99.90;;;;;;5047645;28;21367;-67
2023/07/15 06:02:18;;;;;;;13.10;12.70;;;23.60;99.90;;;;;;5048583;28;20494;-66
2023/07/15 06:04:45;;;;;;;13.20;12.80;;;23.80;99.90;;;;;;5051020;28;20474;-66
2023/07/15 06:07:12;;;;;;;13.07;12.67;;;24.10;99.90;;;;;;5051006;28;20463;-67
2023/07/15 06:09:39;;;;;;;13.00;12.60;;;24.20;99.90;;;;;;5053076;28;20486;-66
2023/07/15 06:12:07;;;;;;;13.20;12.80;;;24.40;99.90;;;;;;5052261;28;20456;-67
2023/07/15 06:14:34;;;;;;;13.10;12.70;;;24.60;99.70;;;;;;5053666;28;20525;-67
2023/07/15 06:17:03;;;;;;;12.70;12.40;;;24.80;99.30;;;;;;5051861;28;20862;-66
2023/07/15 06:19:30;;;;;;;13.00;12.60;;;24.70;99.60;;;;;;5054795;28;20473;-66
2023/07/15 06:21:57;;;;;;;13.03;12.63;;;24.80;99.60;;;;;;5054033;28;20486;-67
2023/07/15 06:24:25;;;;;;;13.40;13.00;;;25.00;99.00;;;;;;5051026;28;20562;-66
2023/07/15 06:26:52;;;;;;;13.40;13.00;;;25.10;98.60;;;;;;5043331;28;20958;-67
2023/07/15 06:29:19;;;;;;;13.37;12.97;;;25.20;98.40;;;;;;5047567;28;20464;-66
2023/07/15 06:31:47;;;;;;;12.77;12.40;;;25.30;98.20;;;;;;5049074;28;20475;-66
2023/07/15 06:34:15;;;;;;;12.87;12.50;;;25.50;98.30;;;;;;5058577;28;20802;-67
2023/07/15 06:36:43;;;;;;;13.10;12.70;;;25.60;97.90;;;;;;5047049;28;20853;-67
2023/07/15 06:39:10;;;;;;;12.70;12.40;;;25.70;98.10;;;;;;5047816;28;20946;-67
2023/07/15 06:41:37;;;;;;;12.50;12.20;;;25.70;98.00;;;;;;5058890;28;20467;-66
2023/07/15 06:44:04;;;;;;;12.70;12.40;;;25.80;98.00;;;;;;5054463;28;21009;-67
2023/07/15 06:46:31;;;;;;;13.40;13.00;;;25.80;97.90;;;;;;5055991;28;20467;-67
2023/07/15 06:48:58;;;;;;;13.00;12.60;;;25.90;98.10;;;;;;5053504;28;20482;-67
2023/07/15 06:51:27;;;;;;;13.20;12.80;;;26.00;98.00;;;;;;5056414;28;20487;-67
2023/07/15 06:53:53;;;;;;;13.30;12.90;;;26.30;97.90;;;;;;5050373;28;20463;-67
2023/07/15 06:56:20;;;;;;;13.20;12.80;;;26.50;97.40;;;;;;5049951;28;20487;-67
2023/07/15 06:58:47;;;;;;;13.17;12.77;;;26.60;97.20;;;;;;5051037;28;20541;-67
2023/07/15 07:01:15;;;;;;;13.20;12.80;;;26.90;96.90;;;;;;5059109;28;21134;-67
2023/07/15 07:03:41;;;;;;;13.17;12.77;;;27.20;96.50;;;;;;5048343;28;20487;-66
2023/07/15 07:06:08;;;;;;;13.37;12.97;;;27.20;96.50;;;;;;5044795;28;20518;-66
2023/07/15 07:08:37;;;;;;;13.00;12.60;;;27.20;96.90;;;;;;5057241;28;20817;-67
2023/07/15 07:11:04;;;;;;;13.53;13.13;;;27.20;97.00;;;;;;5051597;28;20581;-67
2023/07/15 07:13:32;;;;;;;13.60;13.20;;;27.20;96.50;;;;;;5058806;28;20512;-66
2023/07/15 07:16:00;;;;;;;13.20;12.80;;;27.20;95.90;;;;;;5061609;28;21027;-66
2023/07/15 07:18:27;;;;;;;13.40;13.00;;;27.20;95.80;;;;;;5068727;28;20463;-67
2023/07/15 07:20:57;;;;;;;13.60;13.20;;;27.30;95.40;;;;;;5066323;28;20462;-67
2023/07/15 07:23:24;;;;;;;13.80;13.40;;;27.30;95.20;;;;;;5073316;28;21232;-68
2023/07/15 07:25:53;;;;;;;14.40;13.97;;;27.40;95.10;;;;;;5071720;28;20961;-68
2023/07/15 07:28:23;;;;;;;13.73;13.33;;;27.40;95.00;;;;;;5070620;28;20876;-67
2023/07/15 07:30:50;;;;;;;14.47;14.00;;;27.50;95.30;;;;;;5067249;28;20494;-67
2023/07/15 07:33:18;;;;;;;13.97;13.57;;;27.60;95.00;;;;;;5070393;28;20462;-68
2023/07/15 07:35:47;;;;;;;13.70;13.30;;;27.70;95.20;;;;;;5066259;28;20467;-66
2023/07/15 07:38:14;;;;;;;14.00;13.60;;;27.90;94.70;;;;;;5070968;28;20502;-66
2023/07/15 07:40:43;;;;;;;13.70;13.30;;;28.10;94.60;;;;;;5069328;28;20466;-67
2023/07/15 07:43:11;;;;;;;13.67;13.27;;;28.20;93.60;;;;;;5063882;28;21075;-67
2023/07/15 07:45:38;;;;;;;14.03;13.63;;;28.20;94.30;;;;;;5069051;28;20466;-66
2023/07/15 07:48:06;;;;;;;13.80;13.40;;;28.10;93.90;;;;;;5068549;28;20508;-67
2023/07/15 07:50:34;;;;;;;13.47;13.07;;;28.10;94.20;;;;;;5063915;28;20520;-67
2023/07/15 07:53:02;;;;;;;13.73;13.33;;;28.20;94.00;;;;;;5072143;28;20463;-67
2023/07/15 07:55:29;;;;;;;13.20;12.80;;;28.30;94.10;;;;;;5068968;28;21111;-66
2023/07/15 07:57:56;;;;;;;13.80;13.40;;;28.60;93.70;;;;;;5068132;28;20459;-66
2023/07/15 08:00:25;;;;;;;14.10;13.70;;;28.80;93.60;;;;;;5070751;28;20463;-67
2023/07/15 08:02:52;;;;;;;13.93;13.53;;;29.10;92.90;;;;;;5069684;28;20459;-67
2023/07/15 08:05:18;;;;;;;13.90;13.50;;;29.50;92.70;;;;;;5070491;28;20493;-67
2023/07/15 08:07:46;;;;;;;14.33;13.87;;;29.50;92.20;;;;;;5071663;28;20458;-66
2023/07/15 08:10:13;;;;;;;13.73;13.33;;;29.50;91.70;;;;;;5077466;28;20477;-67
2023/07/15 08:12:41;;;;;;;13.60;13.20;;;29.50;91.40;;;;;;5074967;28;20528;-67
2023/07/15 08:15:08;;;;;;;14.00;13.60;;;29.50;91.90;;;;;;5071302;28;20483;-66
2023/07/15 08:17:37;;;;;;;13.93;13.53;;;29.70;92.10;;;;;;5069521;28;20868;-67
2023/07/15 08:20:08;;;;;;;13.60;13.20;;;29.60;92.70;;;;;;5070430;28;20470;-67
2023/07/15 08:22:34;;;;;;;14.07;13.67;;;29.80;92.80;;;;;;5069916;28;20839;-67
2023/07/15 08:25:01;;;;;;;13.47;13.07;;;29.70;92.90;;;;;;5071227;28;20462;-67
2023/07/15 08:27:29;;;;;;;13.40;13.00;;;29.50;93.60;;;;;;5075713;28;20462;-67
2023/07/15 08:29:55;;;;;;;13.43;13.03;;;29.50;93.90;;;;;;5070105;28;20487;-67
2023/07/15 08:32:23;;;;;;;13.40;13.00;;;29.40;94.20;;;;;;5070534;28;20451;-67
2023/07/15 08:35:02;;;;;;;13.07;12.67;;;29.40;94.80;;;;;;5068919;28;20800;-67
2023/07/15 08:37:29;;;;;;;13.20;12.80;;;28.90;95.50;;;;;;5065288;28;20455;-67
2023/07/15 08:39:56;;;;;;;13.03;12.63;;;28.40;96.70;;;;;;5069752;28;20463;-67
2023/07/15 08:42:24;;;;;;;13.03;12.63;;;28.20;97.60;;;;;;5070071;28;20467;-67
2023/07/15 08:44:52;;;;;;;13.00;12.60;;;28.00;98.30;;;;;;5068474;28;20463;-68
2023/07/15 08:47:21;;;;;;;13.43;13.03;;;27.80;98.80;;;;;;5070141;28;20455;-67
2023/07/15 08:49:49;;;;;;;13.27;12.87;;;27.50;99.30;;;;;;5064054;28;20980;-67
2023/07/15 08:52:19;;;;;;;13.17;12.77;;;27.30;99.90;;;;;;5066402;28;20487;-67
2023/07/15 08:54:48;;;;;;;13.37;12.97;;;27.00;99.90;;;;;;5067837;28;20491;-66
2023/07/15 08:57:17;;;;;;;12.87;12.47;;;26.90;99.90;;;;;;5067973;28;20459;-66
2023/07/15 08:59:44;;;;;;;12.43;12.13;;;26.80;99.90;;;;;;5067049;28;20489;-67
2023/07/15 09:02:11;;;;;;;12.43;12.13;;;26.40;99.90;;;;;;5069184;28;20466;-68
2023/07/15 09:04:39;;;;;;;12.57;12.27;;;26.30;99.90;;;;;;5075734;28;20726;-67
2023/07/15 09:07:06;;;;;;;12.10;11.80;;;26.20;99.90;;;;;;5066968;28;20515;-68
2023/07/15 09:09:36;;;;;;;12.13;11.83;;;25.90;99.90;;;;;;5072910;28;20810;-67
2023/07/15 09:12:06;;;;;;;11.93;11.63;;;25.50;99.90;;;;;;5071347;28;20513;-67
2023/07/15 09:14:38;;;;;;;11.63;11.33;;;25.30;99.90;;;;;;5066189;28;20973;-66
2023/07/15 09:17:05;;;;;;;11.80;11.50;;;25.10;99.90;;;;;;5065402;28;20483;-66
2023/07/15 09:19:34;;;;;;;11.37;11.07;;;25.00;99.90;;;;;;5068316;28;20451;-67
2023/07/15 09:22:06;;;;;;;10.70;10.50;;;25.00;99.90;;;;;;5068208;28;20502;-66
2023/07/15 09:24:34;;;;;;;10.67;10.47;;;24.90;99.90;;;;;;5062222;28;20471;-66
2023/07/15 09:27:01;;;;;;;10.67;10.47;;;24.70;99.90;;;;;;5071209;28;20535;-68
2023/07/15 09:29:28;;;;;;;10.40;10.20;;;24.50;99.90;;;;;;5068912;28;20474;-67
2023/07/15 09:31:55;;;;;;;10.47;10.27;;;24.50;99.90;;;;;;5069628;28;20482;-67
2023/07/15 09:34:24;;;;;;;10.27;10.07;;;24.40;99.90;;;;;;5065595;28;20668;-66
2023/07/15 09:36:51;;;;;;;10.17;9.97;;;24.30;99.90;;;;;;5061986;28;20890;-67
2023/07/15 09:39:22;;;;;;;9.87;9.67;;;24.20;99.90;;;;;;5063452;28;20835;-68
2023/07/15 09:42:03;;;;;;;9.70;9.50;;;24.10;99.90;;;;;;5063214;28;20521;-67
2023/07/15 09:44:37;;;;;;;9.97;9.77;;;24.00;99.90;;;;;;5065777;28;20470;-68
2023/07/15 09:47:05;;;;;;;9.80;9.60;;;24.00;99.90;;;;;;5061366;28;20462;-67
2023/07/15 09:49:33;;;;;;;12.63;12.23;;;23.80;99.90;;;;;;5064244;28;20513;-67
2023/07/15 09:52:00;;;;;;;11.50;11.20;;;23.80;99.90;;;;;;5062304;28;20493;-67
2023/07/15 09:54:29;;;;;;;10.73;10.50;;;23.80;99.90;;;;;;5063242;28;20471;-66
2023/07/15 09:57:00;;;;;;;9.70;9.50;;;23.70;99.90;;;;;;5065228;28;20466;-66
2023/07/15 09:59:34;;;;;;;8.53;8.43;;;23.70;99.90;;;;;;5068437;28;20457;-66
2023/07/15 10:02:05;;;;;;;8.70;8.60;;;23.70;99.90;;;;;;5064646;28;20859;-66
2023/07/15 10:04:33;;;;;;;9.70;9.50;;;23.90;99.90;;;;;;5069338;28;20466;-65
2023/07/15 10:07:03;;;;;;;9.60;9.40;;;24.30;99.90;;;;;;5062687;28;20459;-66
2023/07/15 10:09:32;;;;;;;9.60;9.40;;;24.50;99.90;;;;;;5066730;28;20462;-67
2023/07/15 10:12:02;;;;;;;9.50;9.30;;;24.60;99.90;;;;;;5065151;28;20490;-65
2023/07/15 10:14:31;;;;;;;9.57;9.37;;;25.00;99.90;;;;;;5070170;28;20471;-66
2023/07/15 10:17:09;;;;;;;10.00;9.80;;;25.60;99.90;;;;;;5064571;28;21030;-68
2023/07/15 10:19:41;;;;;;;10.40;10.20;;;26.30;99.90;;;;;;5066537;28;20493;-66
2023/07/15 10:22:08;;;;;;;10.80;10.60;;;26.70;99.90;;;;;;5068455;28;20455;-67
2023/07/15 10:24:35;;;;;;;11.13;10.87;;;27.00;99.90;;;;;;5067477;28;20501;-67
2023/07/15 10:27:09;;;;;;;10.53;10.33;;;27.20;99.90;;;;;;5071329;28;20837;-67
2023/07/15 10:29:38;;;;;;;9.80;9.60;;;27.10;99.90;;;;;;5073995;28;20467;-67
2023/07/15 10:32:09;;;;;;;10.93;10.73;;;27.40;99.90;;;;;;5074853;28;21073;-67
2023/07/15 10:34:37;;;;;;;11.00;10.80;;;28.20;99.90;;;;;;5061768;28;20467;-67
2023/07/15 10:37:09;;;;;;;12.13;11.83;;;29.10;99.90;;;;;;5063162;28;20833;-67
2023/07/15 10:39:37;;;;;;;12.17;11.87;;;29.30;99.90;;;;;;5063302;28;20552;-67
2023/07/15 10:42:11;;;;;;;12.30;12.00;;;29.60;99.90;;;;;;5066993;28;20471;-67
2023/07/15 10:44:41;;;;;;;12.50;12.20;;;28.90;99.90;;;;;;5065498;28;20458;-67
2023/07/15 10:47:08;;;;;;;12.53;12.23;;;29.20;99.90;;;;;;5070839;28;20462;-67
2023/07/15 10:49:35;;;;;;;11.27;10.97;;;28.40;99.90;;;;;;5066752;28;20865;-67
2023/07/15 10:52:04;;;;;;;12.07;11.77;;;28.20;99.90;;;;;;5066788;28;20485;-67
2023/07/15 10:54:33;;;;;;;11.90;11.60;;;28.40;99.90;;;;;;5076042;28;20467;-67
2023/07/15 10:57:09;;;;;;;12.10;11.80;;;28.40;99.90;;;;;;5068465;28;20467;-67
2023/07/15 10:59:37;;;;;;;11.97;11.67;;;28.60;99.90;;;;;;5076245;28;20812;-68
2023/07/15 11:02:04;;;;;;;11.60;11.30;;;28.60;99.90;;;;;;5073972;28;20506;-68
2023/07/15 11:04:31;;;;;;;12.00;11.70;;;28.90;99.90;;;;;;5079198;28;20465;-67
2023/07/15 11:07:00;;;;;;;12.00;11.70;;;29.10;99.90;;;;;;5069822;28;20450;-67
2023/07/15 11:09:27;;;;;;;11.80;11.50;;;28.70;99.90;;;;;;5074123;28;20554;-68
2023/07/15 11:11:54;;;;;;;12.07;11.77;;;29.00;99.90;;;;;;5067123;28;20522;-68
2023/07/15 11:14:26;;;;;;;11.77;11.47;;;28.70;99.90;;;;;;5073488;28;20898;-68
2023/07/15 11:16:53;;;;;;;11.50;11.20;;;28.70;99.90;;;;;;5069593;28;20501;-68
2023/07/15 11:19:21;;;;;;;11.97;11.67;;;28.70;99.90;;;;;;5075625;28;20575;-68
2023/07/15 11:21:48;;;;;;;11.57;11.27;;;28.70;99.90;;;;;;5066686;28;20977;-68
2023/07/15 11:24:16;;;;;;;12.03;11.73;;;28.80;99.90;;;;;;5074256;28;20859;-67
2023/07/15 11:26:44;;;;;;;12.40;12.10;;;29.20;99.90;;;;;;5069872;28;20469;-67
2023/07/15 11:29:15;;;;;;;12.20;11.90;;;29.20;99.90;;;;;;5064932;28;20466;-68
2023/07/15 11:31:44;;;;;;;12.43;12.13;;;29.20;99.90;;;;;;5074469;28;20530;-68
2023/07/15 11:34:11;;;;;;;12.17;11.87;;;29.20;99.90;;;;;;5066738;28;20466;-68
2023/07/15 11:36:39;;;;;;;12.20;11.90;;;29.10;99.90;;;;;;5069908;28;20471;-68
2023/07/15 11:39:06;;;;;;;12.13;11.83;;;28.90;99.90;;;;;;5071863;28;20861;-69
2023/07/15 11:41:34;;;;;;;12.60;12.30;;;29.20;99.90;;;;;;5063746;28;20497;-67
2023/07/15 11:44:01;;;;;;;12.50;12.20;;;28.90;99.90;;;;;;5068876;28;20466;-68
2023/07/15 11:46:27;;;;;;;12.30;12.00;;;28.90;99.90;;;;;;5070707;28;20459;-68
2023/07/15 11:48:59;;;;;;;12.30;12.00;;;28.90;99.90;;;;;;5063151;28;20482;-68
2023/07/15 11:51:28;;;;;;;12.43;12.13;;;28.50;99.90;;;;;;5069760;28;21045;-68
2023/07/15 11:53:55;;;;;;;11.80;11.50;;;28.30;99.90;;;;;;5070248;28;20508;-68
2023/07/15 11:56:36;;;;;;;12.50;12.20;;;28.20;99.90;;;;;;5074225;28;20569;-67
2023/07/15 11:59:03;;;;;;;12.20;11.90;;;27.90;99.90;;;;;;5069090;28;20458;-67
2023/07/15 12:01:31;;;;;;;12.23;11.93;;;27.90;99.90;;;;;;5062911;28;20554;-67
2023/07/15 12:04:00;;;;;;;12.53;12.23;;;28.00;99.90;;;;;;5070313;28;20463;-68
2023/07/15 12:06:28;;;;;;;12.43;12.13;;;28.10;99.90;;;;;;5068165;28;20506;-67
2023/07/15 12:09:07;;;;;;;12.30;12.00;;;28.30;99.90;;;;;;5071517;28;20470;-68
2023/07/15 12:11:34;;;;;;;12.20;11.90;;;28.70;99.90;;;;;;5065411;28;20549;-67
2023/07/15 12:14:02;;;;;;;12.03;11.73;;;28.90;99.90;;;;;;5061063;28;20463;-67
2023/07/15 12:16:30;;;;;;;11.90;11.60;;;29.10;99.90;;;;;;5061313;28;20491;-68
2023/07/15 12:18:59;;;;;;;12.07;11.77;;;29.00;99.90;;;;;;5063176;28;20490;-68
2023/07/15 12:21:26;;;;;;;11.70;11.40;;;29.00;99.90;;;;;;5070261;28;20457;-68
2023/07/15 12:23:53;;;;;;;11.40;11.10;;;29.20;99.90;;;;;;5068404;28;20454;-68
2023/07/15 12:26:21;;;;;;;11.03;10.80;;;28.90;99.90;;;;;;5064099;28;20463;-67
2023/07/15 12:28:49;;;;;;;11.33;11.03;;;28.50;99.90;;;;;;5064515;28;20470;-67
2023/07/15 12:31:17;;;;;;;10.53;10.33;;;28.40;99.90;;;;;;5064987;28;20545;-67
2023/07/15 12:33:45;;;;;;;11.57;11.27;;;28.60;99.90;;;;;;5064783;28;20497;-67